createdAt,value
2019-01-12T00:00:39.480Z,7.20
2019-01-12T00:03:10.340Z,7.03
2019-01-12T00:05:41.372Z,6.43
2019-01-12T00:08:12.237Z,8.27
2019-01-12T00:10:43.624Z,8.00
2019-01-12T00:13:14.495Z,7.07
2019-01-12T00:15:45.221Z,7.80
2019-01-12T00:18:16.540Z,6.50
2019-01-12T00:20:47.327Z,7.13
2019-01-12T00:23:18.824Z,6.70
2019-01-12T00:25:49.602Z,5.63
2019-01-12T00:28:20.546Z,6.70
2019-01-12T00:30:51.490Z,5.57
2019-01-12T00:33:22.423Z,6.70
2019-01-12T00:35:53.286Z,5.27
2019-01-12T00:38:24.076Z,6.03
2019-01-12T00:40:54.895Z,6.50
2019-01-12T00:43:26.346Z,6.23
2019-01-12T00:45:57.308Z,5.93
2019-01-12T00:48:28.198Z,6.60
2019-01-12T00:50:58.980Z,5.53
2019-01-12T00:53:29.722Z,6.33
2019-01-12T00:56:00.492Z,5.47
2019-01-12T00:58:31.751Z,5.63
2019-01-12T01:01:02.770Z,6.40
2019-01-12T01:03:33.766Z,5.23
2019-01-12T01:06:05.046Z,6.00
2019-01-12T01:08:35.951Z,5.33
2019-01-12T01:11:06.817Z,7.40
2019-01-12T01:13:37.762Z,5.80
2019-01-12T01:16:08.626Z,4.83
2019-01-12T01:18:39.874Z,7.97
2019-01-12T01:21:11.016Z,5.63
2019-01-12T01:23:43.098Z,4.63
2019-01-12T01:26:13.909Z,5.10
2019-01-12T01:28:44.829Z,5.73
2019-01-12T01:31:16.001Z,6.17
2019-01-12T01:33:46.925Z,6.30
2019-01-12T01:36:17.833Z,6.73
2019-01-12T01:38:48.650Z,6.30
2019-01-12T01:41:19.416Z,6.37
2019-01-12T01:43:50.517Z,4.83
2019-01-12T01:46:21.467Z,5.17
2019-01-12T01:48:52.515Z,4.47
2019-01-12T01:51:23.696Z,6.37
2019-01-12T01:53:54.514Z,5.47
2019-01-12T01:56:25.513Z,4.97
2019-01-12T01:58:56.571Z,4.90
2019-01-12T02:01:27.403Z,5.53
2019-01-12T02:03:58.289Z,6.80
2019-01-12T02:06:29.545Z,4.90
2019-01-12T02:09:01.307Z,6.03
2019-01-12T02:11:32.589Z,4.40
2019-01-12T02:14:03.595Z,6.20
2019-01-12T02:16:34.387Z,6.40
2019-01-12T02:19:05.337Z,5.23
2019-01-12T02:21:36.227Z,5.20
2019-01-12T02:24:07.333Z,5.60
2019-01-12T02:26:38.227Z,4.53
2019-01-12T02:29:09.129Z,4.20
2019-01-12T02:31:40.043Z,4.97
2019-01-12T02:34:11.067Z,4.40
2019-01-12T02:36:41.920Z,4.10
2019-01-12T02:39:13.079Z,4.77
2019-01-12T02:41:44.150Z,4.23
2019-01-12T02:44:14.928Z,4.07
2019-01-12T02:46:45.828Z,4.30
2019-01-12T02:49:16.694Z,5.00
2019-01-12T02:51:47.545Z,3.40
2019-01-12T02:54:18.416Z,4.30
2019-01-12T02:56:49.653Z,4.00
2019-01-12T02:59:20.898Z,3.90
2019-01-12T03:01:52.241Z,4.97
2019-01-12T03:04:23.005Z,6.10
2019-01-12T03:06:53.836Z,3.50
2019-01-12T03:09:24.800Z,3.73
2019-01-12T03:11:55.608Z,5.13
2019-01-12T03:14:26.713Z,4.80
2019-01-12T03:16:57.848Z,4.97
2019-01-12T03:19:29.022Z,3.37
2019-01-12T03:22:00.668Z,4.40
2019-01-12T03:24:31.605Z,4.33
2019-01-12T03:27:02.553Z,4.00
2019-01-12T03:29:33.416Z,4.17
2019-01-12T03:32:04.735Z,4.73
2019-01-12T03:34:35.547Z,4.90
2019-01-12T03:37:06.354Z,3.90
2019-01-12T03:39:37.612Z,4.07
2019-01-12T03:42:08.414Z,4.30
2019-01-12T03:44:39.868Z,4.53
2019-01-12T03:47:10.731Z,4.00
2019-01-12T03:49:41.529Z,3.93
2019-01-12T03:52:12.216Z,3.90
2019-01-12T03:54:42.767Z,3.40
2019-01-12T03:57:13.844Z,3.50
2019-01-12T03:59:44.428Z,4.20
2019-01-12T04:02:15.177Z,3.73
2019-01-12T04:04:46.136Z,3.90
2019-01-12T04:07:16.972Z,3.30
2019-01-12T04:09:47.756Z,3.07
2019-01-12T04:12:19.131Z,2.77
2019-01-12T04:14:50.478Z,2.77
2019-01-12T04:17:21.194Z,2.50
2019-01-12T04:19:51.964Z,2.13
2019-01-12T04:22:22.992Z,2.73
2019-01-12T04:24:54.224Z,1.93
2019-01-12T04:27:25.032Z,2.13
2019-01-12T04:29:55.968Z,1.50
2019-01-12T04:32:26.918Z,1.93
2019-01-12T04:34:57.805Z,1.70
2019-01-12T04:37:28.898Z,2.10
2019-01-12T04:39:59.745Z,2.13
2019-01-12T04:42:31.340Z,1.57
2019-01-12T04:45:02.192Z,1.80
2019-01-12T04:47:33.263Z,1.67
2019-01-12T04:50:04.851Z,1.57
2019-01-12T04:52:35.989Z,2.03
2019-01-12T04:55:08.058Z,1.50
2019-01-12T04:57:39.279Z,1.93
2019-01-12T05:00:15.065Z,1.70
2019-01-12T05:02:45.858Z,1.33
2019-01-12T05:05:16.589Z,2.33
2019-01-12T05:07:47.318Z,1.40
2019-01-12T05:10:18.318Z,1.43
2019-01-12T05:12:49.400Z,1.80
2019-01-12T05:15:20.098Z,1.60
2019-01-12T05:17:51.195Z,0.93
2019-01-12T05:20:23.002Z,1.50
2019-01-12T05:22:54.146Z,1.57
2019-01-12T05:25:25.248Z,1.43
2019-01-12T05:27:56.116Z,2.20
2019-01-12T05:30:27.416Z,1.07
2019-01-12T05:32:58.245Z,1.20
2019-01-12T05:35:29.878Z,0.93
2019-01-12T05:38:01.080Z,1.00
2019-01-12T05:40:31.764Z,1.37
2019-01-12T05:43:02.773Z,1.10
2019-01-12T05:45:33.552Z,1.90
2019-01-12T05:48:04.701Z,1.53
2019-01-12T05:50:35.643Z,1.63
2019-01-12T05:53:06.990Z,2.30
2019-01-12T05:55:37.874Z,1.93
2019-01-12T05:58:08.881Z,2.17
2019-01-12T06:00:39.760Z,1.70
2019-01-12T06:03:10.694Z,1.67
2019-01-12T06:05:41.504Z,1.43
2019-01-12T06:08:12.473Z,1.10
2019-01-12T06:10:43.647Z,1.67
2019-01-12T06:13:14.315Z,1.30
2019-01-12T06:15:45.209Z,1.70
2019-01-12T06:18:16.474Z,1.30
2019-01-12T06:20:47.290Z,1.60
2019-01-12T06:23:18.572Z,1.73
2019-01-12T06:25:49.389Z,1.43
2019-01-12T06:28:20.281Z,1.30
2019-01-12T06:30:50.979Z,0.77
2019-01-12T06:33:21.756Z,1.00
2019-01-12T06:35:52.507Z,2.63
2019-01-12T06:38:23.457Z,0.80
2019-01-12T06:40:54.400Z,0.90
2019-01-12T06:43:25.287Z,1.00
2019-01-12T06:45:56.036Z,0.70
2019-01-12T06:48:27.346Z,3.00
2019-01-12T06:50:58.203Z,2.70
2019-01-12T06:53:29.086Z,2.47
2019-01-12T06:56:02.951Z,2.20
2019-01-12T06:58:37.559Z,2.00
2019-01-12T07:01:08.591Z,1.37
2019-01-12T07:03:39.300Z,1.90
2019-01-12T07:06:09.902Z,1.70
2019-01-12T07:08:40.817Z,1.43
2019-01-12T07:11:11.603Z,1.43
2019-01-12T07:13:42.578Z,2.03
2019-01-12T07:16:13.433Z,1.00
2019-01-12T07:18:44.310Z,1.47
2019-01-12T07:21:15.155Z,1.90
2019-01-12T07:23:46.151Z,1.30
2019-01-12T07:26:17.587Z,1.83
2019-01-12T07:28:48.678Z,1.53
2019-01-12T07:31:19.511Z,1.50
2019-01-12T07:33:50.097Z,1.47
2019-01-12T07:36:21.190Z,1.40
2019-01-12T07:38:52.182Z,1.30
2019-01-12T07:41:23.078Z,1.93
2019-01-12T07:43:53.853Z,1.83
2019-01-12T07:46:25.376Z,1.90
2019-01-12T07:48:56.345Z,2.80
2019-01-12T07:51:27.120Z,1.50
2019-01-12T07:53:58.296Z,1.20
2019-01-12T07:56:29.011Z,1.30
2019-01-12T07:59:01.551Z,0.90
2019-01-12T08:01:34.781Z,1.67
2019-01-12T08:04:06.450Z,1.50
2019-01-12T08:06:37.376Z,1.77
2019-01-12T08:09:09.675Z,2.30
2019-01-12T08:11:41.118Z,2.70
2019-01-12T08:14:12.127Z,3.23
2019-01-12T08:16:42.915Z,4.33
2019-01-12T08:19:13.905Z,3.13
2019-01-12T08:21:45.175Z,5.20
2019-01-12T08:24:16.001Z,3.00
2019-01-12T08:26:48.517Z,4.97
2019-01-12T08:29:19.320Z,3.30
2019-01-12T08:31:50.456Z,3.40
2019-01-12T08:34:21.380Z,3.27
2019-01-12T08:36:52.285Z,3.27
2019-01-12T08:39:23.326Z,4.03
2019-01-12T08:41:54.741Z,1.73
2019-01-12T08:44:25.755Z,2.20
2019-01-12T08:46:56.736Z,1.40
2019-01-12T08:49:27.952Z,1.60
2019-01-12T08:51:58.768Z,1.80
2019-01-12T08:54:29.665Z,2.20
2019-01-12T08:57:00.975Z,1.97
2019-01-12T08:59:31.751Z,1.90
2019-01-12T09:02:03.182Z,2.10
2019-01-12T09:04:34.382Z,2.27
2019-01-12T09:07:04.974Z,1.60
2019-01-12T09:09:36.170Z,2.00
2019-01-12T09:12:07.530Z,1.83
2019-01-12T09:14:38.561Z,1.83
2019-01-12T09:17:09.450Z,2.10
2019-01-12T09:19:40.032Z,2.20
2019-01-12T09:22:11.271Z,1.97
2019-01-12T09:24:42.421Z,2.67
2019-01-12T09:27:13.665Z,3.20
2019-01-12T09:29:44.467Z,2.07
2019-01-12T09:32:16.027Z,1.80
2019-01-12T09:34:47.299Z,2.97
2019-01-12T09:37:18.153Z,2.63
2019-01-12T09:39:49.060Z,2.43
2019-01-12T09:42:20.275Z,2.60
2019-01-12T09:44:51.264Z,2.70
2019-01-12T09:47:22.160Z,2.70
2019-01-12T09:49:53.067Z,3.63
2019-01-12T09:52:23.939Z,2.83
2019-01-12T09:54:55.198Z,2.03
2019-01-12T09:57:26.056Z,2.90
2019-01-12T09:59:57.177Z,2.60
2019-01-12T10:02:28.132Z,2.77
2019-01-12T10:04:59.142Z,2.50
2019-01-12T10:07:29.866Z,2.37
2019-01-12T10:10:00.842Z,2.53
2019-01-12T10:12:32.176Z,3.00
2019-01-12T10:15:02.999Z,2.10
2019-01-12T10:17:33.904Z,2.30
2019-01-12T10:20:06.730Z,2.90
2019-01-12T10:22:37.795Z,2.43
2019-01-12T10:25:10.783Z,2.90
2019-01-12T10:27:41.919Z,3.37
2019-01-12T10:30:17.635Z,2.80
2019-01-12T10:32:48.773Z,2.50
2019-01-12T10:35:20.065Z,2.83
2019-01-12T10:37:50.867Z,3.23
2019-01-12T10:40:21.872Z,3.07
2019-01-12T10:42:53.095Z,3.70
2019-01-12T10:45:23.944Z,3.90
2019-01-12T11:39:45.783Z,1.73
2019-01-12T11:42:17.234Z,1.80
2019-01-12T11:44:47.995Z,1.97
2019-01-12T11:47:18.989Z,1.60
2019-01-12T11:49:50.593Z,1.83
2019-01-12T11:52:21.491Z,1.70
2019-01-12T11:54:52.746Z,1.50
2019-01-12T11:57:23.613Z,1.90
2019-01-12T11:59:56.194Z,25.20
2019-01-12T12:02:37.565Z,18.70
2019-01-12T12:05:08.746Z,15.57
2019-01-12T12:07:40.505Z,18.50
2019-01-12T12:10:13.531Z,18.33
2019-01-12T12:12:44.445Z,21.50
2019-01-12T12:15:16.962Z,18.23
2019-01-12T12:17:47.872Z,15.93
2019-01-12T12:20:21.357Z,16.17
2019-01-12T12:22:52.894Z,16.30
2019-01-12T12:25:24.085Z,14.27
2019-01-12T12:27:54.943Z,15.07
2019-01-12T12:30:28.118Z,13.23
2019-01-12T12:32:59.199Z,14.53
2019-01-12T12:35:30.040Z,12.30
2019-01-12T12:38:00.759Z,10.07
2019-01-12T12:40:31.890Z,11.50
2019-01-12T12:43:03.011Z,8.00
2019-01-12T12:45:33.758Z,11.33
2019-01-12T12:48:04.876Z,8.77
2019-01-12T12:50:37.454Z,8.90
2019-01-12T12:53:08.298Z,7.80
2019-01-12T12:55:39.739Z,7.87
2019-01-12T12:58:10.656Z,8.80
2019-01-12T13:00:41.531Z,7.90
2019-01-12T13:03:12.317Z,7.57
2019-01-12T13:05:43.133Z,6.07
2019-01-12T13:08:14.315Z,5.60
2019-01-12T13:10:45.218Z,4.80
2019-01-12T13:13:24.639Z,5.13
2019-01-12T13:15:55.637Z,5.67
2019-01-12T13:18:26.496Z,4.73
2019-01-12T13:20:57.724Z,3.70
2019-01-12T13:23:28.525Z,4.90
2019-01-12T13:25:59.445Z,4.23
2019-01-12T13:28:30.449Z,4.80
2019-01-12T13:31:07.213Z,4.33
2019-01-12T13:33:38.013Z,4.50
2019-01-12T13:36:10.174Z,4.57
2019-01-12T13:38:41.240Z,3.97
2019-01-12T13:41:12.396Z,4.30
2019-01-12T13:43:43.215Z,2.77
2019-01-12T13:46:14.428Z,3.83
2019-01-12T13:48:45.361Z,3.63
2019-01-12T13:51:16.717Z,3.90
2019-01-12T13:53:47.770Z,3.40
2019-01-12T13:56:19.787Z,3.20
2019-01-12T13:58:51.013Z,3.73
2019-01-12T14:01:21.898Z,3.93
2019-01-12T14:03:53.233Z,5.60
2019-01-12T14:06:24.075Z,4.00
2019-01-12T14:08:54.836Z,4.20
2019-01-12T14:11:25.893Z,3.10
2019-01-12T14:13:56.695Z,4.27
2019-01-12T14:16:27.797Z,3.20
2019-01-12T14:19:00.890Z,3.50
2019-01-12T14:21:31.831Z,5.23
2019-01-12T14:24:02.978Z,4.47
2019-01-12T14:26:33.829Z,3.30
2019-01-12T14:29:04.696Z,4.57
2019-01-12T14:31:35.452Z,3.20
2019-01-12T14:34:06.244Z,3.47
2019-01-12T14:36:37.133Z,3.90
2019-01-12T14:39:10.192Z,2.83
2019-01-12T14:41:41.442Z,3.97
2019-01-12T14:44:12.725Z,3.87
2019-01-12T14:46:43.614Z,4.23
2019-01-12T14:49:14.705Z,4.10
2019-01-12T14:51:45.522Z,3.10
2019-01-12T14:54:16.525Z,4.10
2019-01-12T14:56:48.001Z,5.23
2019-01-12T14:59:18.914Z,2.67
2019-01-12T15:01:49.814Z,2.80
2019-01-12T15:04:20.839Z,2.60
2019-01-12T15:06:52.062Z,2.33
2019-01-12T15:09:22.778Z,2.27
2019-01-12T15:11:53.636Z,2.60
2019-01-12T15:14:24.874Z,3.20
2019-01-12T15:16:56.109Z,2.73
2019-01-12T15:19:26.894Z,3.07
2019-01-12T15:21:57.752Z,2.43
2019-01-12T15:24:28.597Z,2.50
2019-01-12T15:27:00.008Z,3.93
2019-01-12T15:29:31.254Z,4.20
2019-01-12T15:32:03.036Z,2.90
2019-01-12T15:34:33.944Z,2.80
2019-01-12T15:37:04.939Z,3.17
2019-01-12T15:39:35.761Z,3.90
2019-01-12T15:42:06.665Z,5.30
2019-01-12T15:44:37.504Z,3.50
2019-01-12T15:47:08.532Z,3.87
2019-01-12T15:49:39.986Z,3.50
2019-01-12T15:52:10.947Z,4.83
2019-01-12T15:54:41.925Z,3.73
2019-01-12T15:57:13.210Z,4.33
2019-01-12T15:59:44.157Z,6.20
2019-01-12T16:02:16.021Z,3.60
2019-01-12T16:04:47.335Z,3.90
2019-01-12T16:07:18.550Z,5.57
2019-01-12T16:09:49.690Z,4.07
2019-01-12T16:12:20.741Z,4.93
2019-01-12T16:14:55.108Z,4.10
2019-01-12T16:17:26.802Z,3.73
2019-01-12T16:19:57.532Z,3.43
2019-01-12T16:22:28.620Z,2.97
2019-01-12T16:24:59.409Z,3.60
2019-01-12T16:27:30.846Z,2.70
2019-01-12T16:30:01.839Z,4.90
2019-01-12T16:32:32.736Z,3.63
2019-01-12T16:35:03.946Z,4.37
2019-01-12T16:37:34.958Z,3.13
2019-01-12T16:40:09.118Z,4.10
2019-01-12T16:42:39.982Z,3.20
2019-01-12T16:45:11.797Z,4.47
2019-01-12T16:47:42.676Z,3.73
2019-01-12T16:50:13.403Z,3.03
2019-01-12T16:52:44.120Z,3.33
2019-01-12T16:55:16.872Z,4.13
2019-01-12T16:57:47.807Z,3.60
2019-01-12T17:00:20.973Z,4.63
2019-01-12T17:02:52.488Z,3.37
2019-01-12T17:05:23.561Z,3.60
2019-01-12T17:07:54.574Z,4.30
2019-01-12T17:10:25.522Z,4.30
2019-01-12T17:12:56.428Z,3.47
2019-01-12T17:15:34.311Z,5.03
2019-01-12T17:17:59.655Z,5.93
2019-01-12T17:20:30.638Z,4.83
2019-01-12T17:23:01.757Z,5.60
2019-01-12T17:25:33.030Z,5.73
2019-01-12T17:28:03.948Z,7.47
2019-01-12T17:30:34.787Z,6.20
2019-01-12T17:33:05.752Z,8.90
2019-01-12T17:35:36.942Z,8.73
2019-01-12T17:38:08.085Z,10.90
2019-01-12T17:40:38.932Z,13.17
2019-01-12T17:43:09.684Z,12.73
2019-01-12T17:45:40.665Z,9.80
2019-01-12T17:48:11.618Z,9.90
2019-01-12T17:50:42.856Z,9.50
2019-01-12T17:53:14.160Z,8.60
2019-01-12T17:55:45.348Z,8.10
2019-01-12T17:58:15.933Z,7.70
2019-01-12T18:00:48.798Z,6.90
2019-01-12T18:03:19.783Z,6.97
2019-01-12T18:05:53.568Z,6.90
2019-01-12T18:08:24.957Z,7.73
2019-01-12T18:10:55.775Z,9.63
2019-01-12T18:13:26.809Z,6.47
2019-01-12T18:15:59.942Z,5.87
2019-01-12T18:18:30.842Z,5.60
2019-01-12T18:21:02.099Z,5.03
2019-01-12T18:23:32.957Z,5.07
2019-01-12T18:26:03.811Z,3.43
2019-01-12T18:28:34.485Z,3.87
2019-01-12T18:31:05.305Z,3.10
2019-01-12T18:33:37.219Z,3.33
2019-01-12T18:36:08.281Z,2.53
2019-01-12T18:38:39.504Z,2.40
2019-01-12T18:41:12.482Z,3.07
2019-01-12T18:43:44.314Z,3.93
2019-01-12T18:46:15.234Z,2.63
2019-01-12T18:48:46.738Z,2.23
2019-01-12T18:51:20.705Z,2.20
2019-01-12T18:53:58.124Z,1.80
2019-01-12T18:56:30.008Z,1.53
2019-01-12T18:59:01.080Z,2.30
2019-01-12T19:01:32.586Z,1.97
2019-01-12T19:04:03.466Z,1.90
2019-01-12T19:06:34.355Z,1.60
2019-01-12T19:09:07.585Z,1.87
2019-01-12T19:11:38.563Z,1.20
2019-01-12T19:14:09.938Z,1.50
2019-01-12T19:16:41.194Z,1.30
2019-01-12T19:19:12.034Z,2.17
2019-01-12T19:21:42.929Z,1.50
2019-01-12T19:24:14.411Z,2.47
2019-01-12T19:26:46.461Z,2.13
2019-01-12T19:29:17.549Z,3.77
2019-01-12T19:31:48.654Z,2.23
2019-01-12T19:34:19.906Z,3.10
2019-01-12T19:36:51.407Z,2.60
2019-01-12T19:39:22.610Z,3.73
2019-01-12T19:41:53.558Z,3.30
2019-01-12T19:44:24.635Z,4.33
2019-01-12T19:46:55.724Z,2.80
2019-01-12T19:49:26.670Z,2.87
2019-01-12T19:51:57.767Z,2.13
2019-01-12T19:54:29.475Z,3.50
2019-01-12T19:57:00.507Z,2.20
2019-01-12T19:59:31.344Z,4.10
2019-01-12T20:02:05.859Z,3.17
2019-01-12T20:04:43.414Z,2.30
2019-01-12T20:07:14.971Z,2.40
2019-01-12T20:09:46.320Z,2.70
2019-01-12T20:12:17.335Z,2.60
2019-01-12T20:14:48.498Z,3.80
2019-01-12T20:17:19.590Z,3.63
2019-01-12T20:19:50.837Z,2.73
2019-01-12T20:22:22.034Z,3.67
2019-01-12T20:24:54.174Z,3.07
2019-01-12T20:27:25.054Z,3.90
2019-01-12T20:29:57.713Z,3.60
2019-01-12T20:32:44.533Z,5.27
2019-01-12T20:35:27.250Z,5.07
2019-01-12T20:38:15.901Z,4.63
2019-01-12T20:40:55.391Z,4.83
2019-01-12T20:43:37.952Z,4.53
2019-01-12T20:46:12.125Z,4.70
2019-01-12T20:48:59.116Z,4.83
2019-01-12T20:51:35.787Z,4.40
2019-01-12T20:54:12.778Z,6.07
2019-01-12T20:56:55.392Z,6.20
2019-01-12T20:59:28.942Z,7.00
2019-01-12T21:02:26.817Z,5.20
2019-01-12T21:05:15.680Z,4.40
2019-01-12T21:07:55.567Z,5.73
2019-01-12T21:10:34.726Z,4.60
2019-01-12T21:13:32.233Z,4.03
2019-01-12T21:16:06.850Z,4.33
2019-01-12T21:18:38.019Z,3.90
2019-01-12T21:21:09.386Z,4.17
2019-01-12T21:23:41.508Z,4.47
2019-01-12T21:26:13.196Z,3.40
2019-01-12T21:28:44.342Z,4.10
2019-01-12T21:31:15.283Z,3.27
2019-01-12T21:33:46.050Z,5.10
2019-01-12T21:36:16.857Z,4.10
2019-01-12T21:38:48.304Z,3.80
2019-01-12T21:41:19.444Z,3.73
2019-01-12T21:43:50.281Z,3.90
2019-01-12T21:46:21.210Z,5.10
2019-01-12T21:48:52.231Z,4.20
2019-01-12T21:51:23.974Z,4.73
2019-01-12T21:53:54.760Z,3.90
2019-01-12T21:56:25.661Z,5.27
2019-01-12T21:58:56.786Z,4.30
2019-01-12T22:01:28.402Z,3.07
2019-01-12T22:03:59.287Z,4.13
2019-01-12T22:06:30.097Z,3.77
2019-01-12T22:09:00.889Z,2.90
2019-01-12T22:11:31.794Z,3.50
2019-01-12T22:14:03.161Z,3.20
2019-01-12T22:16:34.063Z,3.23
2019-01-12T22:19:05.567Z,4.13
2019-01-12T22:21:36.350Z,3.80
2019-01-12T22:24:07.650Z,3.93
2019-01-12T22:26:38.903Z,3.23
2019-01-12T22:29:10.482Z,3.60
2019-01-12T22:31:45.192Z,3.53
2019-01-12T22:34:16.928Z,3.97
2019-01-12T22:36:48.008Z,3.27
2019-01-12T22:39:21.356Z,3.47
2019-01-12T22:41:54.257Z,3.20
2019-01-12T22:44:25.442Z,3.57
2019-01-12T22:46:57.859Z,2.47
2019-01-12T22:49:28.812Z,3.43
2019-01-12T22:52:00.115Z,3.87
2019-01-12T22:54:32.517Z,3.57
2019-01-12T22:57:03.820Z,4.40
2019-01-12T22:59:34.957Z,3.97
2019-01-12T23:02:06.689Z,4.10
2019-01-12T23:04:37.563Z,4.57
2019-01-12T23:07:11.673Z,3.67
2019-01-12T23:09:41.386Z,4.30
2019-01-12T23:12:12.221Z,5.37
2019-01-12T23:14:43.222Z,4.67
2019-01-12T23:17:14.099Z,3.97
2019-01-12T23:19:44.982Z,4.37
2019-01-12T23:22:16.090Z,4.40
2019-01-12T23:24:47.056Z,4.10
2019-01-12T23:27:18.064Z,3.23
2019-01-12T23:29:48.971Z,5.47
2019-01-12T23:32:19.849Z,4.43
2019-01-12T23:34:50.948Z,3.63
2019-01-12T23:37:22.074Z,4.63
2019-01-12T23:39:53.219Z,4.90
2019-01-12T23:42:24.696Z,3.47
2019-01-12T23:44:56.043Z,5.50
2019-01-12T23:47:27.005Z,4.07
2019-01-12T23:49:57.897Z,6.80
2019-01-12T23:52:28.678Z,3.20
2019-01-12T23:55:00.130Z,3.93
2019-01-12T23:57:31.154Z,3.50
